Time;durP1;ratioP1;P1;durP2;ratioP2;P2;SDS_P1;SDS_P2;PMS_P1;PMS_P2;Temp;Humidity;BMP_temperature;BMP_pressure;BME280_temperature;BME280_humidity;BME280_pressure;Samples;Min_cycle;Max_cycle;Signal;HPM_P1;HPM_P2
2021/09/21 00:00:39;;;;;;;8.43;5.53;;;9.50;99.90;;;;;;5131115;27;20054;-65
2021/09/21 00:03:05;;;;;;;9.82;5.88;;;9.60;99.90;;;;;;5133800;27;20046;-65
2021/09/21 00:05:32;;;;;;;5.90;4.90;;;9.60;99.90;;;;;;5150818;27;20046;-64
2021/09/21 00:08:01;;;;;;;6.97;5.68;;;9.60;99.90;;;;;;5148704;27;20051;-64
2021/09/21 00:10:30;;;;;;;8.07;5.10;;;9.70;99.90;;;;;;5144564;27;20628;-64
2021/09/21 00:12:59;;;;;;;7.90;5.70;;;9.70;99.90;;;;;;5133247;27;20582;-65
2021/09/21 00:15:29;;;;;;;7.28;5.72;;;9.70;99.90;;;;;;5150305;27;20070;-64
2021/09/21 00:17:57;;;;;;;6.60;5.60;;;9.80;99.90;;;;;;5148053;27;20407;-64
2021/09/21 00:20:26;;;;;;;7.57;5.57;;;9.80;99.90;;;;;;5150889;27;20043;-64
2021/09/21 00:22:57;;;;;;;6.25;4.45;;;9.90;99.90;;;;;;5150014;27;20438;-65
2021/09/21 00:25:28;;;;;;;7.35;5.53;;;9.80;99.90;;;;;;5149667;27;20081;-65
2021/09/21 00:28:03;;;;;;;7.15;5.57;;;9.80;99.90;;;;;;5125179;27;20042;-64
2021/09/21 00:30:34;;;;;;;8.18;5.35;;;9.80;99.90;;;;;;5130492;27;20563;-64
2021/09/21 00:33:14;;;;;;;8.00;6.03;;;9.80;99.90;;;;;;5130919;27;20844;-64
2021/09/21 00:35:43;;;;;;;5.63;5.03;;;9.90;99.90;;;;;;5149843;27;20153;-64
2021/09/21 00:38:17;;;;;;;10.18;6.10;;;9.80;99.90;;;;;;5150561;27;20150;-64
2021/09/21 00:40:46;;;;;;;8.25;5.20;;;9.80;99.90;;;;;;5148364;27;20130;-65
2021/09/21 00:43:16;;;;;;;7.22;5.63;;;9.90;99.90;;;;;;5149413;27;20058;-63
2021/09/21 00:45:49;;;;;;;8.88;5.75;;;9.90;99.90;;;;;;5150575;27;20043;-63
2021/09/21 00:48:16;;;;;;;10.23;6.22;;;10.00;99.90;;;;;;5150587;27;20055;-64
2021/09/21 00:50:44;;;;;;;9.73;5.78;;;9.90;99.90;;;;;;5129779;27;20051;-64
2021/09/21 00:53:17;;;;;;;8.23;6.00;;;10.00;99.90;;;;;;5149110;27;20092;-64
2021/09/21 00:55:51;;;;;;;9.20;5.80;;;10.00;99.90;;;;;;5145761;27;20046;-65
2021/09/21 00:58:23;;;;;;;7.05;5.32;;;10.00;99.90;;;;;;5148346;27;20065;-64
2021/09/21 01:00:51;;;;;;;7.45;6.00;;;10.00;99.90;;;;;;5150244;27;20437;-62
2021/09/21 01:03:20;;;;;;;8.00;5.88;;;10.10;99.90;;;;;;5145508;27;20047;-64
2021/09/21 01:05:52;;;;;;;8.20;6.20;;;10.10;99.90;;;;;;5147607;27;20057;-64
2021/09/21 01:08:29;;;;;;;9.02;6.55;;;10.10;99.90;;;;;;5148483;27;20053;-64
2021/09/21 01:10:56;;;;;;;9.18;6.55;;;10.10;99.90;;;;;;5125424;27;20153;-64
2021/09/21 01:13:25;;;;;;;9.48;7.13;;;10.00;99.90;;;;;;5139769;27;20066;-64
2021/09/21 01:15:54;;;;;;;11.63;7.13;;;10.00;99.90;;;;;;5148951;27;20114;-64
2021/09/21 01:18:23;;;;;;;10.68;6.60;;;10.00;99.90;;;;;;5146830;27;20308;-64
2021/09/21 01:20:54;;;;;;;8.95;5.95;;;10.00;99.90;;;;;;5149497;27;20055;-64
2021/09/21 01:23:23;;;;;;;7.60;6.25;;;10.00;99.90;;;;;;5142741;27;20581;-64
2021/09/21 01:25:49;;;;;;;8.98;5.88;;;10.00;99.90;;;;;;5146860;27;20560;-63
2021/09/21 01:28:21;;;;;;;9.27;6.60;;;10.10;99.90;;;;;;5149496;27;20491;-64
2021/09/21 01:30:50;;;;;;;7.43;6.60;;;10.00;99.90;;;;;;5131607;27;20084;-65
2021/09/21 01:33:20;;;;;;;7.88;6.97;;;10.00;99.90;;;;;;5134718;27;20409;-64
2021/09/21 01:35:49;;;;;;;11.77;7.53;;;10.10;99.90;;;;;;5149843;27;20118;-65
2021/09/21 01:38:17;;;;;;;7.80;7.00;;;10.10;99.90;;;;;;5147293;27;20130;-64
2021/09/21 01:40:43;;;;;;;8.45;7.07;;;10.10;99.90;;;;;;5144819;27;20039;-64
2021/09/21 01:43:12;;;;;;;7.50;6.10;;;10.10;99.90;;;;;;5150172;27;20074;-64
2021/09/21 01:45:41;;;;;;;9.88;7.75;;;10.10;99.90;;;;;;5147834;27;20086;-65
2021/09/21 01:48:10;;;;;;;8.37;7.37;;;10.20;99.90;;;;;;5149961;27;20047;-64
2021/09/21 01:51:04;;;;;;;8.67;7.47;;;10.20;99.90;;;;;;5149812;27;20502;-64
2021/09/21 01:59:07;;;;;;;9.65;7.95;;;10.20;99.90;;;;;;5083259;28;20098;-65
2021/09/21 02:01:38;;;;;;;8.00;7.20;;;10.20;99.90;;;;;;5085689;28;20040;-65
2021/09/21 02:04:08;;;;;;;8.93;7.77;;;10.30;99.90;;;;;;5079653;28;20080;-64
2021/09/21 02:06:41;;;;;;;12.55;8.35;;;10.20;99.90;;;;;;5065920;28;21308;-64
2021/09/21 02:09:15;;;;;;;11.03;7.70;;;10.20;99.90;;;;;;5071428;28;20051;-63
2021/09/21 02:11:46;;;;;;;8.68;6.95;;;10.20;99.90;;;;;;5082958;28;20321;-62
2021/09/21 02:14:18;;;;;;;10.05;8.32;;;10.20;99.90;;;;;;5067509;28;20109;-64
2021/09/21 02:16:54;;;;;;;9.70;7.68;;;10.20;99.90;;;;;;5074968;28;20087;-64
2021/09/21 02:19:24;;;;;;;9.80;8.80;;;10.20;99.90;;;;;;5077549;28;20062;-64
2021/09/21 02:21:53;;;;;;;9.52;8.52;;;10.30;99.90;;;;;;5079513;28;20064;-64
2021/09/21 02:24:23;;;;;;;9.85;8.85;;;10.30;99.90;;;;;;5065725;28;20088;-64
2021/09/21 02:26:49;;;;;;;10.93;9.25;;;10.30;99.90;;;;;;5051587;28;20563;-64
2021/09/21 02:29:18;;;;;;;9.00;7.80;;;10.30;99.90;;;;;;5060549;28;20062;-64
2021/09/21 02:31:50;;;;;;;10.00;9.00;;;10.30;99.90;;;;;;5066805;28;20436;-64
2021/09/21 02:34:18;;;;;;;10.63;9.55;;;10.30;99.90;;;;;;5123542;27;20478;-63
2021/09/21 02:36:51;;;;;;;9.88;8.98;;;10.30;99.90;;;;;;5142907;27;20038;-64
2021/09/21 02:39:22;;;;;;;10.65;9.55;;;10.40;99.90;;;;;;5130104;27;20391;-62
2021/09/21 02:41:51;;;;;;;12.77;9.63;;;10.40;99.90;;;;;;5144773;27;20103;-62
2021/09/21 02:44:17;;;;;;;12.75;9.68;;;10.40;99.90;;;;;;5147638;27;20439;-62
2021/09/21 02:46:48;;;;;;;11.18;9.70;;;10.50;99.90;;;;;;5148895;27;20057;-63
2021/09/21 02:49:17;;;;;;;10.80;9.70;;;10.50;99.90;;;;;;5149055;27;20051;-64
2021/09/21 02:51:43;;;;;;;10.15;9.10;;;10.50;99.90;;;;;;5146871;27;20050;-63
2021/09/21 02:54:09;;;;;;;11.18;10.07;;;10.50;99.90;;;;;;5148212;27;20502;-64
2021/09/21 02:56:36;;;;;;;11.68;10.07;;;10.50;99.90;;;;;;5148463;27;20448;-64
2021/09/21 02:59:07;;;;;;;9.70;8.68;;;10.60;99.90;;;;;;5143332;27;20525;-64
2021/09/21 03:01:35;;;;;;;11.02;9.82;;;10.50;99.90;;;;;;5129788;27;20062;-63
2021/09/21 03:04:10;;;;;;;12.07;10.20;;;10.60;99.90;;;;;;5147421;27;20055;-64
2021/09/21 03:06:43;;;;;;;12.48;9.95;;;10.60;99.90;;;;;;5148468;27;20107;-64
2021/09/21 03:12:26;;;;;;;10.38;9.27;;;10.60;99.90;;;;;;5079044;28;20056;-64
2021/09/21 03:17:45;;;;;;;10.75;9.65;;;10.60;99.90;;;;;;5067763;28;20506;-64
2021/09/21 03:20:14;;;;;;;12.65;8.70;;;10.60;99.90;;;;;;5063128;28;20068;-64
2021/09/21 03:22:45;;;;;;;9.73;8.73;;;10.60;99.90;;;;;;5062581;28;20218;-63
2021/09/21 03:25:12;;;;;;;12.75;9.55;;;10.70;99.90;;;;;;5063055;28;20088;-63
2021/09/21 03:27:44;;;;;;;10.13;8.60;;;10.70;99.90;;;;;;5063063;28;20749;-65
2021/09/21 03:30:11;;;;;;;10.45;8.60;;;10.70;99.90;;;;;;5063370;28;20098;-63
2021/09/21 03:32:41;;;;;;;10.77;8.98;;;10.70;99.90;;;;;;5063637;28;20056;-64
2021/09/21 03:35:09;;;;;;;11.30;9.25;;;10.60;99.90;;;;;;5056619;28;20523;-65
2021/09/21 03:37:36;;;;;;;10.43;8.90;;;10.70;99.90;;;;;;5064271;28;20064;-64
2021/09/21 03:40:07;;;;;;;10.88;9.75;;;10.70;99.90;;;;;;5072884;28;20051;-63
2021/09/21 03:42:36;;;;;;;10.35;8.77;;;10.60;99.90;;;;;;5066540;28;20088;-63
2021/09/21 03:45:06;;;;;;;11.90;9.43;;;10.60;99.90;;;;;;5080841;28;20059;-63
2021/09/21 03:47:35;;;;;;;10.73;9.55;;;10.70;99.90;;;;;;5084531;28;20072;-64
2021/09/21 03:50:08;;;;;;;12.05;9.90;;;10.70;99.90;;;;;;5123379;27;20126;-63
2021/09/21 03:52:36;;;;;;;9.80;8.80;;;10.70;99.90;;;;;;5129872;27;20063;-65
2021/09/21 03:55:08;;;;;;;10.98;9.73;;;10.70;99.90;;;;;;5148102;27;20061;-64
2021/09/21 03:57:42;;;;;;;11.00;9.75;;;10.70;99.90;;;;;;5130314;27;20047;-64
2021/09/21 04:00:12;;;;;;;9.52;8.57;;;10.70;99.90;;;;;;5129366;27;20210;-64
2021/09/21 04:02:41;;;;;;;9.75;8.75;;;10.70;99.90;;;;;;5147570;27;20055;-64
2021/09/21 04:05:13;;;;;;;11.27;9.38;;;10.80;99.90;;;;;;5142268;27;20461;-64
2021/09/21 04:07:39;;;;;;;10.57;9.32;;;10.70;99.90;;;;;;5139848;27;20063;-64
2021/09/21 04:10:09;;;;;;;10.15;9.15;;;10.80;99.90;;;;;;5147678;27;20055;-64
2021/09/21 04:12:38;;;;;;;11.38;10.02;;;10.70;99.90;;;;;;5146667;27;20065;-64
2021/09/21 04:15:08;;;;;;;10.68;9.57;;;10.80;99.90;;;;;;5147206;27;20095;-64
2021/09/21 04:17:36;;;;;;;11.23;9.02;;;10.70;99.90;;;;;;5128350;27;20062;-64
2021/09/21 04:20:05;;;;;;;10.57;9.32;;;10.80;99.90;;;;;;5147442;27;20053;-64
2021/09/21 04:22:38;;;;;;;11.65;10.05;;;10.80;99.90;;;;;;5144592;27;20062;-63
2021/09/21 04:25:09;;;;;;;11.50;9.60;;;10.80;99.90;;;;;;5134547;27;20062;-65
2021/09/21 04:27:39;;;;;;;11.90;10.15;;;10.80;99.90;;;;;;5125835;27;20053;-64
2021/09/21 04:30:17;;;;;;;10.90;9.48;;;10.80;99.90;;;;;;5150633;27;20043;-65
2021/09/21 04:32:46;;;;;;;11.30;10.02;;;10.80;99.90;;;;;;5150950;27;20042;-64
2021/09/21 04:35:15;;;;;;;10.45;8.80;;;10.80;99.90;;;;;;5138025;27;20052;-64
2021/09/21 04:37:44;;;;;;;11.68;10.48;;;10.70;99.90;;;;;;5151012;27;20047;-65
2021/09/21 04:40:15;;;;;;;11.55;10.15;;;10.70;99.90;;;;;;5149016;27;20078;-64
2021/09/21 04:42:47;;;;;;;10.98;9.88;;;10.80;99.90;;;;;;5128461;27;20045;-64
2021/09/21 04:45:16;;;;;;;;;;;10.70;99.90;;;;;;5132364;27;20092;-63
2021/09/21 04:47:45;;;;;;;11.10;10.00;;;10.70;99.90;;;;;;5145159;27;20423;-65
2021/09/21 04:50:16;;;;;;;11.85;10.18;;;10.70;99.90;;;;;;5148966;27;20138;-64
2021/09/21 04:52:42;;;;;;;13.23;9.87;;;10.70;99.90;;;;;;5148934;27;20047;-60
2021/09/21 04:55:11;;;;;;;11.45;10.05;;;10.80;99.90;;;;;;5150406;27;20050;-59
2021/09/21 04:57:40;;;;;;;12.48;9.93;;;10.80;99.90;;;;;;5148724;27;20407;-59
2021/09/21 05:00:08;;;;;;;11.18;9.52;;;10.80;99.90;;;;;;5151299;27;20542;-59
2021/09/21 05:02:40;;;;;;;10.65;9.52;;;10.90;99.90;;;;;;5150507;27;20047;-58
2021/09/21 05:05:11;;;;;;;11.55;9.68;;;10.80;99.90;;;;;;5148228;27;20061;-58
2021/09/21 05:07:37;;;;;;;11.02;9.93;;;10.90;99.90;;;;;;5150617;27;20471;-58
2021/09/21 05:10:11;;;;;;;12.98;10.40;;;10.80;99.90;;;;;;5148699;27;20043;-58
2021/09/21 05:12:39;;;;;;;11.52;10.15;;;10.90;99.90;;;;;;5148523;27;20057;-58
2021/09/21 05:15:11;;;;;;;12.27;10.18;;;10.90;99.90;;;;;;5125889;27;20599;-58
2021/09/21 05:17:38;;;;;;;10.48;9.38;;;10.90;99.90;;;;;;5148871;27;20042;-59
2021/09/21 05:20:07;;;;;;;10.82;9.73;;;10.90;99.90;;;;;;5147120;27;20054;-59
2021/09/21 05:22:40;;;;;;;13.52;10.10;;;10.90;99.90;;;;;;5113661;27;20054;-58
2021/09/21 05:25:11;;;;;;;11.63;10.13;;;10.90;99.90;;;;;;5128249;27;20810;-59
2021/09/21 05:27:42;;;;;;;54.88;42.17;;;10.90;99.90;;;;;;5114107;27;20050;-58
2021/09/21 05:30:12;;;;;;;17.98;14.07;;;10.90;99.90;;;;;;5113254;27;20125;-58
2021/09/21 05:32:38;;;;;;;12.45;11.23;;;11.00;99.90;;;;;;5123696;27;20753;-59
2021/09/21 05:35:08;;;;;;;38.03;31.05;;;11.00;99.90;;;;;;5128863;27;20047;-59
2021/09/21 05:37:37;;;;;;;14.38;12.60;;;11.00;99.90;;;;;;5150323;27;20058;-59
2021/09/21 05:40:05;;;;;;;16.25;14.45;;;11.10;99.90;;;;;;5150363;27;20089;-59
2021/09/21 05:42:32;;;;;;;14.20;12.70;;;11.10;99.90;;;;;;5132128;27;20751;-59
2021/09/21 05:45:01;;;;;;;11.95;10.48;;;11.20;99.90;;;;;;5149403;27;20039;-59
2021/09/21 05:47:30;;;;;;;12.02;10.40;;;11.20;99.90;;;;;;5148055;27;20075;-59
2021/09/21 05:50:06;;;;;;;12.93;11.15;;;11.20;99.90;;;;;;5130115;27;20506;-59
2021/09/21 05:52:33;;;;;;;13.18;11.10;;;11.20;99.90;;;;;;5125776;27;20411;-60
2021/09/21 05:55:02;;;;;;;15.93;11.30;;;11.20;99.90;;;;;;5127304;27;20538;-59
2021/09/21 05:57:28;;;;;;;17.30;13.85;;;11.20;99.90;;;;;;5128566;27;20051;-58
2021/09/21 05:59:55;;;;;;;14.27;10.85;;;11.20;99.90;;;;;;5127501;27;20503;-58
2021/09/21 06:02:26;;;;;;;13.00;11.15;;;11.20;99.90;;;;;;5127357;27;20051;-58
2021/09/21 06:04:52;;;;;;;16.48;13.45;;;11.20;99.90;;;;;;5126904;27;20059;-59
2021/09/21 06:07:21;;;;;;;29.50;22.33;;;11.20;99.90;;;;;;5128244;27;20067;-60
2021/09/21 06:09:50;;;;;;;14.20;11.95;;;11.20;99.90;;;;;;5128147;27;20487;-59
2021/09/21 06:12:21;;;;;;;13.52;10.88;;;11.10;99.90;;;;;;5127296;27;20047;-60
2021/09/21 06:14:54;;;;;;;13.40;11.15;;;11.10;99.90;;;;;;5129296;27;20495;-59
2021/09/21 06:17:23;;;;;;;13.10;11.70;;;11.20;99.90;;;;;;5127562;27;20051;-44
2021/09/21 06:19:53;;;;;;;12.90;10.52;;;11.20;99.90;;;;;;5123196;27;20146;-60
2021/09/21 06:22:19;;;;;;;12.10;10.80;;;11.20;99.90;;;;;;5116717;27;20059;-63
2021/09/21 06:24:47;;;;;;;14.52;11.82;;;11.20;99.90;;;;;;5126332;27;20074;-65
2021/09/21 06:27:16;;;;;;;12.75;11.13;;;11.20;99.90;;;;;;5120532;27;20066;-59
2021/09/21 06:29:46;;;;;;;18.58;15.50;;;11.20;99.90;;;;;;5120247;27;20058;-61
2021/09/21 06:32:17;;;;;;;12.43;10.80;;;11.30;99.90;;;;;;5127258;27;20130;-60
2021/09/21 06:34:47;;;;;;;12.50;11.20;;;11.30;99.90;;;;;;5123774;27;20458;-59
2021/09/21 06:37:15;;;;;;;13.80;10.32;;;11.30;99.90;;;;;;5123226;27;20619;-62
2021/09/21 06:39:44;;;;;;;12.85;11.35;;;11.40;99.90;;;;;;5118767;27;20100;-63
2021/09/21 06:42:10;;;;;;;14.45;12.15;;;11.60;99.90;;;;;;5117719;27;20058;-63
2021/09/21 06:44:42;;;;;;;11.43;10.20;;;11.60;99.90;;;;;;5115335;27;20567;-61
2021/09/21 06:47:21;;;;;;;13.23;11.10;;;11.60;99.90;;;;;;5127557;27;20159;-60
2021/09/21 06:49:53;;;;;;;14.05;10.25;;;11.60;99.90;;;;;;5120076;27;20126;-62
2021/09/21 06:52:30;;;;;;;11.80;9.95;;;11.60;99.90;;;;;;5120058;27;20065;-62
2021/09/21 06:54:57;;;;;;;11.25;10.10;;;11.70;99.90;;;;;;5125108;27;20097;-61
2021/09/21 06:57:29;;;;;;;13.00;9.68;;;11.70;99.90;;;;;;5149678;27;20094;-57
2021/09/21 07:00:01;;;;;;;14.02;10.57;;;11.80;99.90;;;;;;5136053;27;20458;-58
2021/09/21 07:02:29;;;;;;;10.45;9.35;;;11.80;99.90;;;;;;5125787;27;20112;-60
2021/09/21 07:05:01;;;;;;;11.80;9.65;;;11.80;99.90;;;;;;5140578;27;20050;-58
2021/09/21 07:07:30;;;;;;;80.82;71.07;;;11.90;99.90;;;;;;5127565;27;20095;-60
2021/09/21 07:10:05;;;;;;;129.68;111.50;;;11.90;99.90;;;;;;5112416;27;20047;-59
2021/09/21 07:12:36;;;;;;;13.50;12.10;;;12.10;99.90;;;;;;5146291;27;20051;-58
2021/09/21 07:15:04;;;;;;;53.03;43.90;;;12.20;99.90;;;;;;5110332;27;20752;-58
2021/09/21 07:17:31;;;;;;;11.95;9.82;;;12.40;99.90;;;;;;5130358;27;20503;-59
2021/09/21 07:19:57;;;;;;;15.38;13.15;;;12.60;99.90;;;;;;5130218;27;20117;-60
2021/09/21 07:22:31;;;;;;;13.13;10.15;;;12.70;99.90;;;;;;5147478;27;20120;-59
2021/09/21 07:24:57;;;;;;;13.43;11.48;;;12.90;99.90;;;;;;5146505;27;20462;-58
2021/09/21 07:27:32;;;;;;;10.88;9.73;;;13.20;99.90;;;;;;5127367;27;20076;-59
2021/09/21 07:29:59;;;;;;;55.90;46.90;;;13.30;99.90;;;;;;5136350;27;20138;-57
2021/09/21 07:32:26;;;;;;;16.98;14.52;;;13.50;99.90;;;;;;5142567;27;20074;-52
2021/09/21 07:34:53;;;;;;;14.13;12.60;;;13.50;99.90;;;;;;5147520;27;20138;-53
2021/09/21 07:37:22;;;;;;;16.45;14.07;;;13.70;99.90;;;;;;5143979;27;20085;-55
2021/09/21 07:39:55;;;;;;;11.93;10.70;;;13.70;99.90;;;;;;5148214;27;20142;-55
2021/09/21 07:42:24;;;;;;;15.55;13.90;;;13.80;99.90;;;;;;5142270;27;20043;-57
2021/09/21 07:44:56;;;;;;;14.98;12.40;;;14.00;99.90;;;;;;5146330;27;20055;-57
2021/09/21 07:47:26;;;;;;;12.88;10.45;;;14.10;99.90;;;;;;5145556;27;20533;-57
2021/09/21 07:49:55;;;;;;;9.90;8.85;;;14.40;99.90;;;;;;5148280;27;20494;-57
2021/09/21 07:52:27;;;;;;;12.38;9.88;;;14.60;99.90;;;;;;5148614;27;20054;-57
2021/09/21 07:54:56;;;;;;;10.02;8.90;;;15.00;99.90;;;;;;5142923;27;20043;-58
2021/09/21 07:57:22;;;;;;;11.98;9.43;;;15.00;99.90;;;;;;5125713;27;20059;-57
2021/09/21 07:59:56;;;;;;;15.75;11.18;;;15.20;99.90;;;;;;5147003;27;20046;-57
2021/09/21 08:02:24;;;;;;;12.27;10.70;;;15.30;99.90;;;;;;5151457;27;20054;-57
2021/09/21 08:04:55;;;;;;;9.75;7.88;;;15.50;99.90;;;;;;5131339;27;20418;-57
2021/09/21 08:07:21;;;;;;;9.32;7.57;;;15.60;99.90;;;;;;5150143;27;20046;-58
2021/09/21 08:09:49;;;;;;;10.65;7.03;;;15.80;99.90;;;;;;5151027;27;20155;-59
2021/09/21 08:12:19;;;;;;;21.80;8.52;;;16.00;99.90;;;;;;5132067;27;20058;-57
2021/09/21 08:14:54;;;;;;;10.55;7.35;;;16.20;99.90;;;;;;5147637;27;20061;-54
2021/09/21 08:17:27;;;;;;;9.00;7.50;;;16.30;99.90;;;;;;5151016;27;20415;-55
2021/09/21 08:20:01;;;;;;;11.98;7.50;;;16.40;99.90;;;;;;5151533;27;20058;-56
2021/09/21 08:22:30;;;;;;;9.43;7.03;;;16.60;99.90;;;;;;5126863;27;20137;-58
2021/09/21 08:25:00;;;;;;;9.23;7.15;;;16.50;99.90;;;;;;5147139;27;20677;-56
2021/09/21 08:27:29;;;;;;;69.45;61.53;;;16.60;99.90;;;;;;5149295;27;20163;-56
2021/09/21 08:29:55;;;;;;;19.48;14.55;;;16.60;99.90;;;;;;5144070;27;20053;-54
2021/09/21 08:32:21;;;;;;;10.15;7.20;;;16.80;99.90;;;;;;5143908;27;20529;-55
2021/09/21 08:34:50;;;;;;;9.43;8.38;;;16.80;99.90;;;;;;5132595;27;20046;-59
2021/09/21 08:37:19;;;;;;;10.07;7.70;;;16.90;99.90;;;;;;5149600;27;20051;-55
2021/09/21 08:39:48;;;;;;;8.95;7.38;;;17.00;99.90;;;;;;5143629;27;20530;-60
2021/09/21 08:42:15;;;;;;;8.48;6.95;;;17.00;99.90;;;;;;5151004;27;20089;-60
2021/09/21 08:44:41;;;;;;;8.38;7.32;;;17.10;99.90;;;;;;5149917;27;20065;-59
2021/09/21 08:47:13;;;;;;;9.40;7.32;;;17.20;99.90;;;;;;5150783;27;20043;-60
2021/09/21 08:49:43;;;;;;;8.63;7.28;;;17.20;99.90;;;;;;5149697;27;20066;-61
2021/09/21 08:52:09;;;;;;;13.52;9.02;;;17.30;99.90;;;;;;5149272;27;20051;-59
2021/09/21 08:54:41;;;;;;;10.35;7.30;;;17.50;99.90;;;;;;5129774;27;20054;-60
2021/09/21 08:57:12;;;;;;;9.00;7.25;;;17.80;99.90;;;;;;5147990;27;20054;-60
2021/09/21 08:59:44;;;;;;;9.07;6.20;;;17.60;99.90;;;;;;5151674;27;20047;-60
2021/09/21 09:02:12;;;;;;;9.00;6.80;;;17.80;99.90;;;;;;5147496;27;20103;-62
2021/09/21 09:04:41;;;;;;;8.50;7.53;;;17.80;99.90;;;;;;5150755;27;20103;-63
2021/09/21 09:07:08;;;;;;;10.27;7.07;;;17.90;99.90;;;;;;5149878;27;20657;-66
2021/09/21 09:09:39;;;;;;;9.40;6.65;;;18.10;99.90;;;;;;5145529;27;20051;-65
2021/09/21 09:12:07;;;;;;;12.88;10.20;;;18.10;99.90;;;;;;5143967;27;20286;-68
2021/09/21 09:14:38;;;;;;;8.15;6.97;;;18.30;99.90;;;;;;5148005;27;20085;-63
2021/09/21 09:17:11;;;;;;;10.57;9.48;;;18.40;99.90;;;;;;5146625;27;20063;-64
2021/09/21 09:19:45;;;;;;;9.40;8.18;;;18.70;99.90;;;;;;5130851;27;20047;-65
2021/09/21 09:22:15;;;;;;;13.55;9.65;;;18.70;99.90;;;;;;5143530;27;20071;-66
2021/09/21 09:24:52;;;;;;;14.48;10.45;;;19.10;99.90;;;;;;5128344;27;20046;-65
2021/09/21 09:27:20;;;;;;;12.18;10.07;;;19.30;97.50;;;;;;5147552;27;20050;-66
2021/09/21 09:30:16;;;;;;;10.07;8.15;;;19.40;97.50;;;;;;5147092;27;20506;-66
2021/09/21 09:32:46;;;;;;;8.02;5.97;;;19.50;92.40;;;;;;5141940;27;20077;-65
2021/09/21 09:35:34;;;;;;;7.57;5.35;;;19.80;95.70;;;;;;5148955;27;20468;-63
2021/09/21 09:38:15;;;;;;;7.47;6.55;;;19.80;90.30;;;;;;5146216;27;20492;-64
2021/09/21 09:40:52;;;;;;;8.02;5.63;;;20.10;90.90;;;;;;5149749;27;20043;-67
2021/09/21 09:43:31;;;;;;;7.95;5.78;;;20.20;91.10;;;;;;5143909;27;20083;-63
2021/09/21 09:45:59;;;;;;;7.18;6.25;;;20.30;83.00;;;;;;5141988;27;20043;-63
2021/09/21 09:48:28;;;;;;;11.57;10.25;;;20.70;90.50;;;;;;5145519;27;20095;-62
2021/09/21 09:50:58;;;;;;;10.10;8.18;;;20.80;80.30;;;;;;5145094;27;20047;-63
2021/09/21 09:53:28;;;;;;;12.40;10.65;;;20.70;78.20;;;;;;5142765;27;20097;-62
2021/09/21 09:56:00;;;;;;;5.90;4.30;;;20.80;80.70;;;;;;5142873;27;20051;-62
2021/09/21 09:58:30;;;;;;;7.35;4.95;;;21.00;80.00;;;;;;5120486;27;20448;-61
2021/09/21 10:01:00;;;;;;;12.07;9.68;;;21.20;81.20;;;;;;5122985;27;20392;-61
2021/09/21 10:03:28;;;;;;;8.18;5.88;;;21.30;78.50;;;;;;5126114;27;20626;-62
2021/09/21 10:05:59;;;;;;;13.73;11.65;;;21.30;75.40;;;;;;5141338;27;20073;-62
2021/09/21 10:08:26;;;;;;;8.63;6.22;;;21.30;72.90;;;;;;5144583;27;20084;-64
2021/09/21 10:10:54;;;;;;;7.28;6.43;;;21.00;73.10;;;;;;5145212;27;20047;-63
2021/09/21 10:13:25;;;;;;;7.50;5.03;;;21.10;73.40;;;;;;5146365;27;20568;-62
2021/09/21 10:15:53;;;;;;;6.43;4.88;;;20.90;72.70;;;;;;5147640;27;20466;-60
2021/09/21 10:18:21;;;;;;;7.40;6.10;;;20.50;71.90;;;;;;5148980;27;20051;-62
2021/09/21 10:21:00;;;;;;;6.45;4.18;;;20.30;71.10;;;;;;5147982;27;20046;-60
2021/09/21 10:23:37;;;;;;;8.48;5.15;;;19.90;72.60;;;;;;5146181;27;20043;-60
2021/09/21 10:26:16;;;;;;;5.43;4.47;;;19.80;75.70;;;;;;5147024;27;20050;-63
2021/09/21 10:28:44;;;;;;;5.35;3.60;;;19.70;76.10;;;;;;5145751;27;20150;-62
2021/09/21 10:31:16;;;;;;;11.20;9.35;;;19.90;78.50;;;;;;5148801;27;20047;-64
2021/09/21 10:33:45;;;;;;;4.45;3.25;;;20.00;77.80;;;;;;5149259;27;20046;-63
2021/09/21 10:36:32;;;;;;;6.93;4.68;;;20.10;73.70;;;;;;5130381;27;20128;-63
2021/09/21 10:39:07;;;;;;;5.88;3.88;;;20.10;74.00;;;;;;5117183;27;20082;-61
2021/09/21 10:41:33;;;;;;;8.98;7.32;;;20.40;75.90;;;;;;5148025;27;20103;-63
2021/09/21 10:44:08;;;;;;;5.57;4.10;;;20.40;73.30;;;;;;5142885;27;20051;-63
2021/09/21 10:46:57;;;;;;;9.65;6.70;;;20.30;73.40;;;;;;5125600;27;20145;-61
2021/09/21 10:49:27;;;;;;;8.10;5.75;;;20.40;74.20;;;;;;5148730;27;20123;-62
2021/09/21 10:51:56;;;;;;;9.55;6.30;;;20.60;73.10;;;;;;5145403;27;20450;-62
2021/09/21 10:54:29;;;;;;;14.83;12.60;;;21.00;73.10;;;;;;5145645;27;20123;-63
2021/09/21 10:57:07;;;;;;;7.57;6.00;;;21.00;71.50;;;;;;5145203;27;20097;-60
2021/09/21 10:59:39;;;;;;;8.90;7.40;;;21.10;71.60;;;;;;5148063;27;20054;-61
2021/09/21 11:02:10;;;;;;;7.75;6.03;;;21.20;70.70;;;;;;5110796;27;20135;-61
2021/09/21 11:04:46;;;;;;;7.00;5.43;;;21.60;70.20;;;;;;5144992;27;20062;-61
2021/09/21 11:07:15;;;;;;;8.60;5.28;;;21.40;68.10;;;;;;5142309;27;20061;-61
2021/09/21 11:09:49;;;;;;;6.40;5.05;;;21.90;70.10;;;;;;5141068;27;20891;-62
2021/09/21 11:12:19;;;;;;;8.13;5.80;;;22.10;69.50;;;;;;5139128;27;20075;-60
2021/09/21 11:14:47;;;;;;;6.57;5.53;;;22.10;68.00;;;;;;5138555;27;20049;-62
2021/09/21 11:17:22;;;;;;;6.75;4.80;;;22.30;66.60;;;;;;5104182;27;20051;-60
2021/09/21 11:19:53;;;;;;;7.57;6.07;;;22.50;65.20;;;;;;5135946;27;20135;-61
2021/09/21 11:22:26;;;;;;;10.77;5.38;;;22.50;65.10;;;;;;5120855;27;20046;-61
2021/09/21 11:25:00;;;;;;;8.27;5.97;;;22.10;65.30;;;;;;5142424;27;20046;-60
2021/09/21 11:27:27;;;;;;;6.80;5.40;;;22.10;64.80;;;;;;5138315;27;20046;-59
2021/09/21 11:30:17;;;;;;;6.90;5.88;;;22.00;65.70;;;;;;5138094;27;20570;-60
2021/09/21 11:32:45;;;;;;;6.65;4.47;;;21.70;65.30;;;;;;5135636;27;20051;-59
2021/09/21 11:35:21;;;;;;;10.13;4.72;;;21.80;67.90;;;;;;5121173;27;20130;-61
2021/09/21 11:37:51;;;;;;;7.97;4.72;;;21.90;67.40;;;;;;5141493;27;20430;-61
2021/09/21 11:40:27;;;;;;;6.80;5.22;;;21.90;68.10;;;;;;5142615;27;20126;-60
2021/09/21 11:42:54;;;;;;;6.93;5.05;;;21.60;66.20;;;;;;5148435;27;20057;-61
2021/09/21 11:45:23;;;;;;;5.97;4.50;;;21.60;67.70;;;;;;5140791;27;20054;-60
2021/09/21 11:47:54;;;;;;;7.22;4.78;;;21.70;67.00;;;;;;5148014;27;20050;-60
2021/09/21 11:50:32;;;;;;;8.35;4.95;;;21.80;66.90;;;;;;5150561;27;20046;-61
2021/09/21 11:53:04;;;;;;;8.88;5.63;;;21.70;67.80;;;;;;5145407;27;20553;-61
2021/09/21 11:55:43;;;;;;;6.85;4.72;;;21.70;68.60;;;;;;5150125;27;20093;-60
2021/09/21 11:58:13;;;;;;;7.53;4.60;;;21.70;67.70;;;;;;5119887;27;20051;-61
2021/09/21 12:00:50;;;;;;;6.07;4.93;;;21.80;68.40;;;;;;5146490;27;20524;-60
2021/09/21 12:03:28;;;;;;;6.55;5.07;;;21.70;68.60;;;;;;5131872;27;20066;-60
2021/09/21 12:05:58;;;;;;;8.27;5.03;;;21.50;69.60;;;;;;5147544;27;20129;-61
2021/09/21 12:08:44;;;;;;;8.05;5.32;;;21.30;70.30;;;;;;5148367;27;20050;-61
2021/09/21 12:11:15;;;;;;;9.85;7.65;;;21.60;71.30;;;;;;5141912;27;20135;-62
2021/09/21 12:13:50;;;;;;;9.23;7.38;;;21.70;70.60;;;;;;5127367;27;20057;-63
2021/09/21 12:16:23;;;;;;;8.85;5.60;;;21.80;70.50;;;;;;5149445;27;20054;-61
2021/09/21 12:18:53;;;;;;;7.03;5.15;;;21.80;71.50;;;;;;5148750;27;20146;-62
2021/09/21 12:21:22;;;;;;;15.18;10.40;;;21.50;70.70;;;;;;5147842;27;20050;-62
2021/09/21 12:23:53;;;;;;;9.75;7.35;;;21.40;69.60;;;;;;5149749;27;20074;-62
2021/09/21 12:26:24;;;;;;;13.57;10.60;;;21.00;71.40;;;;;;5149211;27;20383;-63
2021/09/21 12:28:57;;;;;;;8.48;5.78;;;21.20;71.80;;;;;;5148304;27;20046;-61
2021/09/21 12:31:34;;;;;;;8.88;6.00;;;20.80;73.10;;;;;;5147604;27;20050;-63
2021/09/21 12:34:08;;;;;;;11.20;6.55;;;20.60;73.20;;;;;;5147527;27;20048;-62
2021/09/21 12:36:42;;;;;;;11.43;9.25;;;20.30;74.10;;;;;;5149647;27;20100;-61
2021/09/21 12:39:18;;;;;;;9.77;7.35;;;20.10;76.20;;;;;;5145728;27;20050;-62
2021/09/21 12:41:47;;;;;;;7.07;5.05;;;20.00;79.50;;;;;;5147842;27;20104;-62
2021/09/21 12:44:21;;;;;;;21.95;17.60;;;19.80;81.90;;;;;;5148255;27;20060;-60
2021/09/21 12:46:56;;;;;;;14.90;13.18;;;19.60;84.80;;;;;;5144976;27;20049;-61
2021/09/21 12:49:31;;;;;;;11.90;8.95;;;19.50;85.60;;;;;;5149246;27;20061;-61
2021/09/21 12:52:03;;;;;;;10.88;8.80;;;19.60;86.80;;;;;;5128095;27;20118;-61
2021/09/21 12:54:33;;;;;;;11.93;9.15;;;19.50;89.60;;;;;;5128577;27;20097;-62
2021/09/21 12:57:02;;;;;;;9.70;6.60;;;19.60;89.60;;;;;;5108524;27;20055;-62
2021/09/21 12:59:32;;;;;;;8.10;5.72;;;19.70;90.70;;;;;;5127197;27;20046;-62
2021/09/21 13:02:01;;;;;;;12.18;8.23;;;19.70;90.30;;;;;;5149964;27;20054;-61
2021/09/21 13:04:32;;;;;;;9.48;6.30;;;19.80;90.20;;;;;;5129992;27;20054;-62
2021/09/21 13:07:03;;;;;;;11.77;8.45;;;19.90;91.20;;;;;;5144669;27;20046;-61
2021/09/21 13:09:29;;;;;;;6.82;5.53;;;19.80;91.40;;;;;;5146305;27;20676;-62